Delta Virtual Airport Information Service

New Orleans Louis Armstrong International Airport

ICAO: KMSY Country: United States
Latitude: 29.9934 Longitude: -90.258
Latest Arrival : DAC8038 (KMEM-KMSY) Latest Departure : DAC216 (KMSY-MMUN)


WX CaptureLIVE
Data provided by noaa.gov | Fetched at 04:56:52

METAR : KMSY 030953Z 00000KT 1/4SM FG VV002 13/13 A3012 RMK AO2 SLP203 T01330128 RVRNO

TAF : KMSY 030957Z 0310/0412 00000KT 1/4SM FG OVC002 FM031600 00000KT P6SM BKN250 FM041000 00000KT 1/2SM FG BKN003


Runway Data for KMSY
Data provided by openaviationdata.com

Runway ID Mag Var Hdg Length Elevation Surface ILS Freq ILS Id ILS Slope
1 2 13° 7017 ft 4 ft Concrete 111.7 IJFI 3
6 2 58° 3569 ft 4 ft Asphalt -- -- --
10 2 103° 10097 ft 4 ft Asphalt 109.9 IMSY 2
19 2 193° 7017 ft 4 ft Concrete 111.7 IONW 0
24 2 238° 3569 ft 4 ft Asphalt -- -- --
28 2 283° 10097 ft 4 ft Asphalt 109.9 IHOX 3

New Orleans Louis Armstrong International Airport, United States
Use only for reference purposes



Not for navigational purposes.